Terminal Aerodrome Forecast
Issued by NWS Jackson, MS

Home | Current Version | Previous Version | Text Only | Print | Product List | Glossary On
Versions: 1 2 3 4 5 6 7 8 9 10 11 12 13 14
877
FTUS44 KMEG 211130
TAFTUP
TAF
KTUP 211130Z 2112/2212 11003KT P6SM BKN250
     FM211500 15008KT P6SM BKN250
     FM211700 16010G17KT P6SM SCT050 BKN250
     FM220000 16008KT P6SM BKN250
     FM220600 17012KT P6SM BKN060 BKN120=

USA.gov is the U.S. government's official web portal to all federal, state and local government web resources and services.